Time;durP1;ratioP1;P1;durP2;ratioP2;P2;SDS_P1;SDS_P2;PMS_P1;PMS_P2;Temp;Humidity;BMP_temperature;BMP_pressure;BME280_temperature;BME280_humidity;BME280_pressure;Samples;Min_cycle;Max_cycle;Signal;HPM_P1;HPM_P2
2021/05/26 00:02:16;;;;;;;;;;;10.40;78.80;;;;;;5086077;28;19958;-69
2021/05/26 00:04:41;;;;;;;;;;;10.40;79.10;;;;;;5088476;28;19974;-69
2021/05/26 00:07:07;;;;;;;;;;;10.50;79.10;;;;;;5091279;28;20567;-69
2021/05/26 00:09:35;;;;;;;;;;;10.50;79.00;;;;;;5078888;28;19965;-70
2021/05/26 00:12:01;;;;;;;;;;;10.50;79.40;;;;;;5087781;28;19913;-69
2021/05/26 00:14:27;;;;;;;;;;;10.50;79.50;;;;;;5083989;28;19985;-70
2021/05/26 00:16:52;;;;;;;;;;;10.50;79.50;;;;;;5081215;28;19913;-71
2021/05/26 00:19:18;;;;;;;;;;;10.50;79.60;;;;;;5077357;28;19923;-70
2021/05/26 00:21:46;;;;;;;;;;;10.50;79.70;;;;;;5081221;28;19920;-69
2021/05/26 00:24:12;;;;;;;;;;;10.50;79.90;;;;;;5094738;28;19912;-69
2021/05/26 00:26:37;;;;;;;;;;;10.50;80.10;;;;;;5091042;28;19912;-71
2021/05/26 00:29:03;;;;;;;;;;;10.50;80.10;;;;;;5075050;28;19998;-71
2021/05/26 00:31:31;;;;;;;;;;;10.50;80.10;;;;;;5092635;28;19917;-70
2021/05/26 00:33:57;;;;;;;;;;;10.50;79.90;;;;;;5092524;28;19916;-70
2021/05/26 00:36:22;;;;;;;;;;;10.50;80.00;;;;;;5093521;28;19916;-69
2021/05/26 00:38:48;;;;;;;;;;;10.50;80.30;;;;;;5094659;28;19920;-70
2021/05/26 00:41:14;;;;;;;;;;;10.50;80.40;;;;;;5077231;28;19912;-69
2021/05/26 00:43:39;;;;;;;;;;;10.50;80.40;;;;;;5067073;28;19919;-69
2021/05/26 00:46:06;;;;;;;;;;;10.50;80.60;;;;;;5077986;28;20325;-71
2021/05/26 00:48:32;;;;;;;;;;;10.50;80.70;;;;;;5085214;28;19926;-72
2021/05/26 00:50:57;;;;;;;;;;;10.50;80.80;;;;;;5095011;28;20003;-71
2021/05/26 00:53:24;;;;;;;;;;;10.40;81.20;;;;;;5080538;28;19912;-73
2021/05/26 00:55:50;;;;;;;;;;;10.30;82.00;;;;;;5064633;28;19920;-72
2021/05/26 00:58:16;;;;;;;;;;;10.10;84.10;;;;;;5095615;28;20358;-72
2021/05/26 01:00:41;;;;;;;;;;;9.70;86.50;;;;;;5085529;28;19986;-72
2021/05/26 01:03:07;;;;;;;;;;;9.30;88.60;;;;;;5081050;28;20037;-72
2021/05/26 01:05:33;;;;;;;;;;;8.90;91.00;;;;;;5085025;28;19916;-72
2021/05/26 01:07:59;;;;;;;;;;;8.60;91.90;;;;;;5090337;28;19912;-72
2021/05/26 01:10:26;;;;;;;;;;;8.40;93.40;;;;;;5094685;28;19912;-72
2021/05/26 01:12:52;;;;;;;;;;;8.20;93.70;;;;;;5071423;28;19920;-70
2021/05/26 01:15:17;;;;;;;;;;;8.10;93.90;;;;;;5094360;28;19912;-70
2021/05/26 01:17:43;;;;;;;;;;;8.00;94.30;;;;;;5076830;28;20440;-71
2021/05/26 01:20:10;;;;;;;;;;;8.00;94.50;;;;;;5091986;28;19920;-71
2021/05/26 01:22:36;;;;;;;;;;;7.90;94.50;;;;;;5086121;28;20214;-71
2021/05/26 01:25:06;;;;;;;;;;;7.90;94.30;;;;;;5066353;28;20003;-70
2021/05/26 01:27:32;;;;;;;;;;;7.90;94.70;;;;;;5076264;28;20308;-71
2021/05/26 01:29:59;;;;;;;;;;;7.90;94.80;;;;;;5086839;28;19919;-71
2021/05/26 01:32:25;;;;;;;;;;;7.90;95.20;;;;;;5082526;28;19923;-71
2021/05/26 01:34:51;;;;;;;;;;;7.90;94.80;;;;;;5078056;28;19991;-72
2021/05/26 01:37:16;;;;;;;;;;;7.90;95.00;;;;;;5082096;28;19912;-71
2021/05/26 01:39:46;;;;;;;;;;;7.80;95.00;;;;;;5068770;28;19912;-71
2021/05/26 01:42:26;;;;;;;;;;;7.80;95.10;;;;;;5094798;28;19939;-72
2021/05/26 01:44:51;;;;;;;;;;;7.70;95.20;;;;;;5092693;28;19927;-71
2021/05/26 01:47:17;;;;;;;;;;;7.70;95.20;;;;;;5095296;28;19920;-71
2021/05/26 01:49:42;;;;;;;;;;;7.70;94.90;;;;;;5089997;28;19916;-72
2021/05/26 01:52:08;;;;;;;;;;;7.70;94.80;;;;;;5084291;28;20003;-71
2021/05/26 01:54:34;;;;;;;;;;;7.60;95.30;;;;;;5077748;28;20696;-72
2021/05/26 01:57:00;;;;;;;;;;;7.60;95.40;;;;;;5091201;28;19943;-71
2021/05/26 01:59:25;;;;;;;;;;;7.50;95.50;;;;;;5094576;28;20205;-71
2021/05/26 02:01:51;;;;;;;;;;;7.40;95.50;;;;;;5080853;28;20233;-71
2021/05/26 02:04:16;;;;;;;;;;;7.40;95.40;;;;;;5058744;28;19923;-72
2021/05/26 02:06:47;;;;;;;;;;;7.40;95.60;;;;;;5086698;28;19916;-72
2021/05/26 02:09:12;;;;;;;;;;;7.40;95.70;;;;;;5085359;28;19916;-72
2021/05/26 02:14:22;;;;;;;;;;;7.40;95.70;;;;;;5075311;28;19919;-72
2021/05/26 02:16:47;;;;;;;;;;;7.40;95.70;;;;;;5079542;28;20007;-72
2021/05/26 02:19:13;;;;;;;;;;;7.50;95.50;;;;;;5092017;28;19912;-72
2021/05/26 02:21:39;;;;;;;;;;;7.60;95.20;;;;;;5082810;28;19912;-72
2021/05/26 02:24:04;;;;;;;;;;;7.70;95.60;;;;;;5060116;28;20331;-72
2021/05/26 02:26:30;;;;;;;;;;;7.70;94.70;;;;;;5085745;28;19916;-72
2021/05/26 02:28:55;;;;;;;;;;;7.70;95.80;;;;;;5064269;28;20198;-72
2021/05/26 02:31:21;;;;;;;;;;;7.80;95.20;;;;;;5087540;28;19965;-71
2021/05/26 02:33:46;;;;;;;;;;;7.90;95.00;;;;;;5094304;28;20288;-72
2021/05/26 02:36:12;;;;;;;;;;;8.10;94.40;;;;;;5074355;28;19912;-72
2021/05/26 02:38:37;;;;;;;;;;;8.30;93.60;;;;;;5098404;28;19916;-73
2021/05/26 02:41:03;;;;;;;;;;;8.40;93.40;;;;;;5091063;28;19919;-73
2021/05/26 02:43:28;;;;;;;;;;;8.50;92.80;;;;;;5079724;28;19912;-72
2021/05/26 02:45:54;;;;;;;;;;;8.60;92.50;;;;;;5082492;28;20423;-71
2021/05/26 02:48:19;;;;;;;;;;;8.80;91.40;;;;;;5077377;28;20213;-72
2021/05/26 02:50:45;;;;;;;;;;;9.00;90.60;;;;;;5079026;28;20301;-73
2021/05/26 02:53:11;;;;;;;;;;;9.20;89.70;;;;;;5084602;28;20137;-72
2021/05/26 02:55:36;;;;;;;;;;;9.30;89.20;;;;;;5078615;28;20333;-71
2021/05/26 02:58:02;;;;;;;;;;;9.30;88.90;;;;;;5078892;28;19916;-72
2021/05/26 03:00:28;;;;;;;;;;;9.40;87.60;;;;;;5087899;28;19924;-72
2021/05/26 03:02:57;;;;;;;;;;;9.50;87.30;;;;;;5079244;28;19919;-72
2021/05/26 03:05:23;;;;;;;;;;;9.40;88.40;;;;;;5085066;28;20012;-72
2021/05/26 03:07:48;;;;;;;;;;;9.20;89.00;;;;;;5085344;28;19999;-73
2021/05/26 03:10:16;;;;;;;;;;;9.10;90.00;;;;;;5095188;28;19943;-72
2021/05/26 03:12:42;;;;;;;;;;;9.00;91.00;;;;;;5073967;28;19974;-72
2021/05/26 03:15:08;;;;;;;;;;;8.80;92.30;;;;;;5084676;28;19915;-73
2021/05/26 03:17:34;;;;;;;;;;;8.60;93.20;;;;;;5093743;28;19916;-72
2021/05/26 03:20:01;;;;;;;;;;;8.40;94.00;;;;;;5092095;28;20224;-72
2021/05/26 03:22:26;;;;;;;;;;;8.20;94.10;;;;;;5089824;28;20289;-74
2021/05/26 03:24:52;;;;;;;;;;;8.10;94.60;;;;;;5077223;28;19919;-73
2021/05/26 03:27:20;;;;;;;;;;;8.00;94.60;;;;;;5081201;28;20033;-73
2021/05/26 03:29:45;;;;;;;;;;;7.90;95.50;;;;;;5087745;28;19913;-73
2021/05/26 03:32:11;;;;;;;;;;;7.90;95.20;;;;;;5074030;28;19919;-72
2021/05/26 03:34:39;;;;;;;;;;;7.80;95.20;;;;;;5089178;28;19913;-72
2021/05/26 03:37:05;;;;;;;;;;;7.70;95.40;;;;;;5077162;28;19963;-72
2021/05/26 03:39:30;;;;;;;;;;;7.60;95.40;;;;;;5084178;28;20347;-73
2021/05/26 03:41:59;;;;;;;;;;;7.60;96.00;;;;;;5084461;28;19955;-73
2021/05/26 03:44:24;;;;;;;;;;;7.70;95.80;;;;;;5084711;28;19919;-73
2021/05/26 03:46:50;;;;;;;;;;;7.60;95.30;;;;;;5086443;28;21384;-73
2021/05/26 03:49:15;;;;;;;;;;;7.60;95.90;;;;;;5090079;28;20189;-73
2021/05/26 03:51:41;;;;;;;;;;;7.70;95.70;;;;;;5087463;28;20331;-73
2021/05/26 03:54:06;;;;;;;;;;;7.70;95.50;;;;;;5090086;28;19912;-73
2021/05/26 03:56:32;;;;;;;;;;;7.70;95.60;;;;;;5078908;28;19924;-73
2021/05/26 03:58:57;;;;;;;;;;;7.70;96.10;;;;;;5084682;28;19934;-72
2021/05/26 04:01:23;;;;;;;;;;;7.70;95.90;;;;;;5080438;28;19919;-73
2021/05/26 04:03:49;;;;;;;;;;;7.70;95.50;;;;;;5073109;28;19913;-73
2021/05/26 04:06:14;;;;;;;;;;;7.70;95.40;;;;;;5076490;28;19916;-73
2021/05/26 04:08:40;;;;;;;;;;;7.60;95.40;;;;;;5085416;28;19916;-74
2021/05/26 04:11:08;;;;;;;;;;;7.50;95.80;;;;;;5068971;28;20309;-73
2021/05/26 04:13:34;;;;;;;;;;;7.40;96.00;;;;;;5077726;28;20438;-74
2021/05/26 04:15:59;;;;;;;;;;;7.40;95.60;;;;;;5089873;28;19927;-74
2021/05/26 04:18:25;;;;;;;;;;;7.30;95.70;;;;;;5093835;28;20313;-73
2021/05/26 04:20:50;;;;;;;;;;;7.30;96.00;;;;;;5087187;28;20255;-73
2021/05/26 04:23:16;;;;;;;;;;;7.20;95.70;;;;;;5077669;28;19919;-74
2021/05/26 04:25:43;;;;;;;;;;;7.20;95.90;;;;;;5087416;28;20448;-73
2021/05/26 04:28:08;;;;;;;;;;;7.20;96.00;;;;;;5078834;28;19923;-74
2021/05/26 04:30:34;;;;;;;;;;;7.20;95.90;;;;;;5087664;28;20228;-73
2021/05/26 04:33:00;;;;;;;;;;;7.20;96.10;;;;;;5063744;28;20289;-74
2021/05/26 04:35:26;;;;;;;;;;;7.20;96.20;;;;;;5082586;28;20311;-73
2021/05/26 04:37:51;;;;;;;;;;;7.20;96.00;;;;;;5075308;28;19971;-73
2021/05/26 04:40:17;;;;;;;;;;;7.20;95.90;;;;;;5081941;28;19919;-74
2021/05/26 04:42:43;;;;;;;;;;;7.20;96.30;;;;;;5091095;28;20288;-73
2021/05/26 04:45:08;;;;;;;;;;;7.10;96.00;;;;;;5070966;28;19908;-73
2021/05/26 04:47:34;;;;;;;;;;;7.10;96.20;;;;;;5069617;28;19912;-73
2021/05/26 04:49:59;;;;;;;;;;;7.10;96.10;;;;;;5083628;28;20217;-73
2021/05/26 04:52:25;;;;;;;;;;;7.10;96.20;;;;;;5092736;28;19918;-74
2021/05/26 04:54:51;;;;;;;;;;;7.20;96.30;;;;;;5078634;28;19912;-74
2021/05/26 04:57:16;;;;;;;;;;;7.20;96.40;;;;;;5094365;28;19916;-74
2021/05/26 04:59:41;;;;;;;;;;;7.30;96.10;;;;;;5096347;28;19995;-73
2021/05/26 05:02:07;;;;;;;;;;;7.40;96.20;;;;;;5095857;28;19994;-73
2021/05/26 05:04:33;;;;;;;;;;;7.40;96.50;;;;;;5066471;28;20011;-73
2021/05/26 05:06:58;;;;;;;;;;;7.40;96.50;;;;;;5091362;28;19912;-73
2021/05/26 05:09:24;;;;;;;;;;;7.50;96.30;;;;;;5088307;28;19916;-73
2021/05/26 05:11:49;;;;;;;;;;;7.50;96.60;;;;;;5095073;28;19926;-73
2021/05/26 05:14:16;;;;;;;;;;;7.50;96.80;;;;;;5071698;28;19916;-73
2021/05/26 05:16:41;;;;;;;;;;;7.60;96.50;;;;;;5092581;28;19920;-73
2021/05/26 05:19:07;;;;;;;;;;;7.60;96.70;;;;;;5074463;28;19923;-73
2021/05/26 05:21:32;;;;;;;;;;;7.70;96.70;;;;;;5083492;28;19915;-73
2021/05/26 05:23:58;;;;;;;;;;;7.90;96.40;;;;;;5092041;28;19973;-73
2021/05/26 05:26:24;;;;;;;;;;;8.00;96.00;;;;;;5088444;28;19958;-73
2021/05/26 05:28:49;;;;;;;;;;;8.10;96.50;;;;;;5085394;28;19912;-72
2021/05/26 05:31:15;;;;;;;;;;;8.20;96.80;;;;;;5095401;28;19918;-72
2021/05/26 05:33:40;;;;;;;;;;;8.20;95.50;;;;;;5079516;28;20252;-73
2021/05/26 05:36:06;;;;;;;;;;;8.30;95.50;;;;;;5080150;28;19912;-73
2021/05/26 05:38:34;;;;;;;;;;;8.30;95.80;;;;;;5083797;28;19916;-73
2021/05/26 05:40:59;;;;;;;;;;;8.30;95.90;;;;;;5095099;28;20286;-73
2021/05/26 05:43:25;;;;;;;;;;;8.20;96.00;;;;;;5083771;28;19948;-73
2021/05/26 05:45:50;;;;;;;;;;;8.20;95.90;;;;;;5085419;28;19956;-73
2021/05/26 05:48:16;;;;;;;;;;;8.20;97.10;;;;;;5063402;28;20024;-74
2021/05/26 05:50:41;;;;;;;;;;;8.20;96.30;;;;;;5095947;28;19912;-73
2021/05/26 05:53:07;;;;;;;;;;;8.30;96.00;;;;;;5093522;28;19912;-73
2021/05/26 05:55:33;;;;;;;;;;;8.30;95.80;;;;;;5092255;28;19968;-73
2021/05/26 05:58:03;;;;;;;;;;;8.40;95.80;;;;;;5095913;28;20308;-72
2021/05/26 06:00:29;;;;;;;;;;;8.40;95.90;;;;;;5087553;28;19912;-73
2021/05/26 06:02:54;;;;;;;;;;;8.40;95.70;;;;;;5077787;28;19920;-73
2021/05/26 06:05:20;;;;;;;;;;;8.40;95.70;;;;;;5066282;28;19919;-73
2021/05/26 06:07:45;;;;;;;;;;;8.40;95.60;;;;;;5098871;28;20296;-73
2021/05/26 06:10:11;;;;;;;;;;;8.40;96.40;;;;;;5084803;28;20356;-73
2021/05/26 06:12:37;;;;;;;;;;;8.40;96.00;;;;;;5099864;28;19915;-73
2021/05/26 06:15:03;;;;;;;;;;;8.50;95.80;;;;;;5097639;28;19915;-74
2021/05/26 06:17:31;;;;;;;;;;;8.50;95.40;;;;;;5079374;28;19969;-73
2021/05/26 06:19:57;;;;;;;;;;;8.50;95.30;;;;;;5088476;28;20217;-74
2021/05/26 06:22:23;;;;;;;;;;;8.50;95.20;;;;;;5083120;28;19918;-73
2021/05/26 06:24:48;;;;;;;;;;;8.60;95.50;;;;;;5074089;28;19919;-72
2021/05/26 06:27:14;;;;;;;;;;;8.60;96.00;;;;;;5099339;28;20370;-74
2021/05/26 06:29:42;;;;;;;;;;;8.60;96.20;;;;;;5093767;28;19916;-72
2021/05/26 06:32:08;;;;;;;;;;;8.60;94.90;;;;;;5079450;28;19931;-73
2021/05/26 06:34:33;;;;;;;;;;;8.60;95.70;;;;;;5083052;28;20301;-74
2021/05/26 06:36:59;;;;;;;;;;;8.60;95.20;;;;;;5089842;28;19919;-73
2021/05/26 06:39:24;;;;;;;;;;;8.50;96.10;;;;;;5096543;28;19925;-73
2021/05/26 06:41:50;;;;;;;;;;;8.50;95.60;;;;;;5081234;28;20213;-72
2021/05/26 06:44:15;;;;;;;;;;;8.50;96.00;;;;;;5079638;28;19915;-73
2021/05/26 06:46:41;;;;;;;;;;;8.50;95.70;;;;;;5094652;28;19916;-73
2021/05/26 06:49:07;;;;;;;;;;;8.50;95.10;;;;;;5099237;28;19960;-73
2021/05/26 06:51:33;;;;;;;;;;;8.50;95.40;;;;;;5079616;28;19965;-73
2021/05/26 06:53:58;;;;;;;;;;;8.60;95.00;;;;;;5099201;28;20002;-73
2021/05/26 06:56:24;;;;;;;;;;;8.50;96.50;;;;;;5091982;28;19924;-73
2021/05/26 06:58:50;;;;;;;;;;;8.50;96.00;;;;;;5078704;28;20000;-73
2021/05/26 07:01:15;;;;;;;;;;;8.50;95.40;;;;;;5094218;28;20216;-73
2021/05/26 07:03:41;;;;;;;;;;;8.50;95.90;;;;;;5099053;28;19912;-73
2021/05/26 07:06:07;;;;;;;;;;;8.40;95.80;;;;;;5077575;28;19923;-73
2021/05/26 07:08:32;;;;;;;;;;;8.40;95.50;;;;;;5089224;28;20300;-73
2021/05/26 07:10:58;;;;;;;;;;;8.50;96.20;;;;;;5097399;28;19944;-73
2021/05/26 07:13:24;;;;;;;;;;;8.50;95.30;;;;;;5098772;28;20292;-73
2021/05/26 07:15:49;;;;;;;;;;;8.50;95.70;;;;;;5087184;28;19944;-73
2021/05/26 07:18:15;;;;;;;;;;;8.50;95.60;;;;;;5095897;28;19912;-73
2021/05/26 07:20:44;;;;;;;;;;;8.60;95.90;;;;;;5079986;28;19995;-73
2021/05/26 07:23:10;;;;;;;;;;;8.70;96.10;;;;;;5097424;28;19916;-73
2021/05/26 07:25:35;;;;;;;;;;;8.80;95.60;;;;;;5089853;28;19974;-73
2021/05/26 07:28:01;;;;;;;;;;;8.90;96.20;;;;;;5078433;28;19920;-73
2021/05/26 07:30:27;;;;;;;;;;;8.90;95.30;;;;;;5091463;28;19916;-74
2021/05/26 07:32:52;;;;;;;;;;;9.00;95.60;;;;;;5097801;28;19958;-73
2021/05/26 07:35:18;;;;;;;;;;;9.00;95.50;;;;;;5090751;28;19953;-73
2021/05/26 07:37:44;;;;;;;;;;;9.00;95.40;;;;;;5097240;28;19916;-73
2021/05/26 07:40:10;;;;;;;;;;;9.10;95.70;;;;;;5096747;28;19918;-72
2021/05/26 07:42:36;;;;;;;;;;;9.10;95.50;;;;;;5094384;28;20007;-73
2021/05/26 07:45:03;;;;;;;;;;;9.20;96.00;;;;;;5096764;28;19909;-73
2021/05/26 07:47:28;;;;;;;;;;;9.30;95.70;;;;;;5097708;28;19923;-73
2021/05/26 07:49:54;;;;;;;;;;;9.30;95.50;;;;;;5079058;28;19938;-73
2021/05/26 07:52:20;;;;;;;;;;;9.60;95.90;;;;;;5091749;28;20038;-73
2021/05/26 07:54:46;;;;;;;;;;;9.80;95.90;;;;;;5095943;28;19955;-72
2021/05/26 07:57:12;;;;;;;;;;;9.90;95.80;;;;;;5088988;28;19920;-72
2021/05/26 07:59:37;;;;;;;;;;;10.10;95.20;;;;;;5082117;28;20054;-72
2021/05/26 08:02:03;;;;;;;;;;;10.10;94.70;;;;;;5077352;28;19908;-72
2021/05/26 08:04:28;;;;;;;;;;;10.20;95.90;;;;;;5060974;28;19912;-73
2021/05/26 08:06:54;;;;;;;;;;;10.30;95.30;;;;;;5091893;28;19919;-73
2021/05/26 08:09:20;;;;;;;;;;;10.40;95.00;;;;;;5086560;28;19923;-73
2021/05/26 08:11:46;;;;;;;;;;;10.80;94.90;;;;;;5081579;28;19951;-72
2021/05/26 08:14:12;;;;;;;;;;;10.60;93.40;;;;;;5078514;28;19956;-72
2021/05/26 08:16:37;;;;;;;;;;;10.60;93.60;;;;;;5091849;28;20373;-73
2021/05/26 08:19:03;;;;;;;;;;;10.80;93.10;;;;;;5093830;28;20362;-73
2021/05/26 08:21:29;;;;;;;;;;;10.80;92.90;;;;;;5076114;28;19954;-73
2021/05/26 08:23:54;;;;;;;;;;;10.80;92.50;;;;;;5068185;28;20265;-73
2021/05/26 08:26:23;;;;;;;;;;;10.90;91.30;;;;;;5076428;28;19916;-72
2021/05/26 08:28:52;;;;;;;;;;;10.90;91.50;;;;;;5086364;28;19912;-73
2021/05/26 08:31:18;;;;;;;;;;;10.90;91.20;;;;;;5079096;28;20283;-72
2021/05/26 08:33:47;;;;;;;;;;;10.70;92.10;;;;;;5086377;28;19952;-72
2021/05/26 08:36:13;;;;;;;;;;;10.60;92.40;;;;;;5086942;28;20266;-73
2021/05/26 08:38:38;;;;;;;;;;;10.70;91.90;;;;;;5095416;28;19916;-72
2021/05/26 08:41:08;;;;;;;;;;;10.80;91.40;;;;;;5095845;28;19947;-73
2021/05/26 08:43:34;;;;;;;;;;;10.60;91.90;;;;;;5094568;28;20007;-72
2021/05/26 08:46:02;;;;;;;;;;;10.60;91.30;;;;;;5084903;28;19951;-73
2021/05/26 08:48:30;;;;;;;;;;;10.50;90.40;;;;;;5095348;28;19951;-73
2021/05/26 08:50:55;;;;;;;;;;;10.50;91.50;;;;;;5095543;28;20002;-73
2021/05/26 08:53:21;;;;;;;;;;;10.50;91.20;;;;;;5095178;28;20035;-73
2021/05/26 08:55:46;;;;;;;;;;;10.80;91.80;;;;;;5072390;28;19921;-72
2021/05/26 08:58:12;;;;;;;;;;;11.00;90.00;;;;;;5077689;28;19921;-72
2021/05/26 09:00:38;;;;;;;;;;;10.90;89.00;;;;;;5058702;28;19909;-72
2021/05/26 09:03:07;;;;;;;;;;;10.70;91.80;;;;;;5078916;28;19939;-73
2021/05/26 09:05:34;;;;;;;;;;;10.50;90.40;;;;;;5063564;28;19919;-72
2021/05/26 09:08:08;;;;;;;;;;;10.10;90.30;;;;;;5093602;28;20015;-73
2021/05/26 09:10:44;;;;;;;;;;;10.00;89.90;;;;;;5095499;28;19954;-73
2021/05/26 09:13:25;;;;;;;;;;;9.90;91.80;;;;;;5085372;28;19916;-73
2021/05/26 09:15:50;;;;;;;;;;;10.00;91.00;;;;;;5076568;28;19917;-73
2021/05/26 09:18:16;;;;;;;;;;;10.00;90.90;;;;;;5087061;28;19926;-73
2021/05/26 09:20:44;;;;;;;;;;;10.00;90.60;;;;;;5095043;28;19916;-72
2021/05/26 09:23:36;;;;;;;;;;;10.00;91.80;;;;;;5088079;28;19919;-73
2021/05/26 09:26:01;;;;;;;;;;;9.90;90.90;;;;;;5090559;28;19912;-72
2021/05/26 09:28:35;;;;;;;;;;;9.90;90.90;;;;;;5078000;28;19912;-73
2021/05/26 09:31:06;;;;;;;;;;;9.90;92.40;;;;;;5096293;28;19930;-73
2021/05/26 09:33:33;;;;;;;;;;;9.80;92.40;;;;;;5063637;28;19919;-73
2021/05/26 09:35:59;;;;;;;;;;;9.80;93.20;;;;;;5078627;28;20017;-74
2021/05/26 09:38:28;;;;;;;;;;;9.80;92.50;;;;;;5093458;28;20018;-74
2021/05/26 09:40:54;;;;;;;;;;;9.80;92.80;;;;;;5093489;28;19912;-73
2021/05/26 09:43:37;;;;;;;;;;;9.90;93.10;;;;;;5093624;28;20126;-74
2021/05/26 09:46:15;;;;;;;;;;;10.00;93.60;;;;;;5095213;28;19912;-74
2021/05/26 09:48:40;;;;;;;;;;;9.90;92.80;;;;;;5081462;28;19924;-74
2021/05/26 09:51:06;;;;;;;;;;;9.70;92.90;;;;;;5074767;28;19921;-74
2021/05/26 09:53:31;;;;;;;;;;;9.60;93.00;;;;;;5081822;28;20276;-74
2021/05/26 09:56:00;;;;;;;;;;;9.60;93.80;;;;;;5080441;28;19916;-74
2021/05/26 09:58:25;;;;;;;;;;;9.70;94.00;;;;;;5088220;28;19985;-74
2021/05/26 10:00:51;;;;;;;;;;;9.70;94.20;;;;;;5062504;28;19912;-74
2021/05/26 10:03:16;;;;;;;;;;;9.90;95.20;;;;;;5075625;28;19912;-74
2021/05/26 10:05:42;;;;;;;;;;;10.10;94.40;;;;;;5086771;28;19918;-74
2021/05/26 10:08:12;;;;;;;;;;;10.10;93.60;;;;;;5081133;28;19912;-74
2021/05/26 10:10:40;;;;;;;;;;;10.10;93.60;;;;;;5075864;28;20224;-73
2021/05/26 10:13:06;;;;;;;;;;;10.10;93.90;;;;;;5089337;28;19924;-73
2021/05/26 10:15:34;;;;;;;;;;;10.20;92.90;;;;;;5075984;28;19908;-73
2021/05/26 10:18:01;;;;;;;;;;;10.20;91.90;;;;;;5093924;28;20245;-73
2021/05/26 10:20:28;;;;;;;;;;;10.10;91.90;;;;;;5094102;28;19961;-73
2021/05/26 10:22:55;;;;;;;;;;;10.10;91.70;;;;;;5089048;28;19919;-73
2021/05/26 10:25:21;;;;;;;;;;;10.20;90.70;;;;;;5092281;28;19917;-73
2021/05/26 10:27:53;;;;;;;;;;;10.30;91.90;;;;;;5092979;28;19916;-73
2021/05/26 10:30:27;;;;;;;;;;;10.30;91.50;;;;;;5087534;28;20021;-73
2021/05/26 10:33:05;;;;;;;;;;;10.90;91.40;;;;;;5095303;28;19913;-73
2021/05/26 10:35:31;;;;;;;;;;;11.30;89.90;;;;;;5093813;28;20034;-73
2021/05/26 10:37:58;;;;;;;;;;;11.20;89.30;;;;;;5074091;28;19912;-73
2021/05/26 10:40:33;;;;;;;;;;;11.10;88.70;;;;;;5083255;28;19916;-73
2021/05/26 10:43:14;;;;;;;;;;;11.00;88.50;;;;;;5075868;28;20267;-73
2021/05/26 10:45:40;;;;;;;;;;;11.00;90.00;;;;;;5073349;28;19917;-73
2021/05/26 10:48:06;;;;;;;;;;;10.90;89.80;;;;;;5086438;28;19918;-73
2021/05/26 10:50:44;;;;;;;;;;;10.80;90.60;;;;;;5093287;28;19919;-73
2021/05/26 10:53:10;;;;;;;;;;;10.70;91.70;;;;;;5088856;28;20053;-73
2021/05/26 10:55:38;;;;;;;;;;;10.80;92.20;;;;;;5089753;28;20220;-74
2021/05/26 10:58:19;;;;;;;;;;;10.90;93.40;;;;;;5090134;28;19928;-72
2021/05/26 11:00:50;;;;;;;;;;;10.60;91.20;;;;;;5084398;28;19916;-71
2021/05/26 11:03:25;;;;;;;;;;;10.70;92.40;;;;;;5094331;28;19916;-71
2021/05/26 11:05:52;;;;;;;;;;;10.90;92.40;;;;;;5077374;28;20307;-73
2021/05/26 11:08:31;;;;;;;;;;;11.20;91.50;;;;;;5095558;28;19920;-73
2021/05/26 11:10:57;;;;;;;;;;;11.20;91.60;;;;;;5076028;28;19917;-73
2021/05/26 11:13:23;;;;;;;;;;;11.20;91.50;;;;;;5083261;28;19919;-73
2021/05/26 11:15:54;;;;;;;;;;;11.10;91.40;;;;;;5085504;28;20224;-73
2021/05/26 11:20:48;;;;;;;;;;;11.30;91.60;;;;;;5092254;28;19912;-73
2021/05/26 11:23:14;;;;;;;;;;;11.50;92.20;;;;;;5078443;28;19908;-72
2021/05/26 11:25:52;;;;;;;;;;;12.00;91.50;;;;;;5086305;28;20066;-72
2021/05/26 11:28:24;;;;;;;;;;;12.20;88.50;;;;;;5095973;28;19935;-73
2021/05/26 11:30:58;;;;;;;;;;;12.40;87.80;;;;;;5095072;28;19919;-74
2021/05/26 11:33:23;;;;;;;;;;;12.20;88.00;;;;;;5080146;28;20369;-72
2021/05/26 11:35:49;;;;;;;;;;;11.90;88.50;;;;;;5087846;28;19916;-72
2021/05/26 11:38:21;;;;;;;;;;;11.90;88.70;;;;;;5095071;28;19978;-71
2021/05/26 11:40:47;;;;;;;;;;;11.70;89.00;;;;;;5095351;28;20028;-72
2021/05/26 11:43:13;;;;;;;;;;;11.60;89.90;;;;;;5091584;28;19925;-72
2021/05/26 11:45:39;;;;;;;;;;;11.70;89.80;;;;;;5074079;28;19912;-72
2021/05/26 11:48:04;;;;;;;;;;;11.80;90.90;;;;;;5086166;28;19912;-71
2021/05/26 11:50:31;;;;;;;;;;;12.00;90.30;;;;;;5078412;28;20007;-72
2021/05/26 11:52:59;;;;;;;;;;;12.00;89.90;;;;;;5080701;28;19912;-72
2021/05/26 11:55:24;;;;;;;;;;;11.70;89.60;;;;;;5056728;28;19912;-72
2021/05/26 11:57:51;;;;;;;;;;;11.60;89.90;;;;;;5058232;28;20043;-71
2021/05/26 12:00:20;;;;;;;;;;;11.80;88.70;;;;;;5063313;28;19917;-71
2021/05/26 12:03:05;;;;;;;;;;;11.70;89.10;;;;;;5074684;28;19923;-71
2021/05/26 12:05:34;;;;;;;;;;;11.80;88.80;;;;;;5076161;28;19917;-72
2021/05/26 12:08:01;;;;;;;;;;;11.70;88.90;;;;;;5072365;28;20229;-71
2021/05/26 12:10:27;;;;;;;;;;;11.60;90.30;;;;;;5069355;28;19923;-72
2021/05/26 12:13:02;;;;;;;;;;;11.90;89.70;;;;;;5067906;28;19965;-72
2021/05/26 12:15:28;;;;;;;;;;;12.10;90.60;;;;;;5076958;28;20224;-71
2021/05/26 12:17:55;;;;;;;;;;;11.90;88.90;;;;;;5077381;28;19912;-71
2021/05/26 12:20:20;;;;;;;;;;;11.70;88.80;;;;;;5075581;28;20320;-71
2021/05/26 12:22:47;;;;;;;;;;;11.70;89.60;;;;;;5073109;28;19920;-72
2021/05/26 12:25:12;;;;;;;;;;;12.00;91.20;;;;;;5057825;28;19913;-71
2021/05/26 12:27:46;;;;;;;;;;;12.10;88.60;;;;;;5056984;28;20401;-72
2021/05/26 12:30:21;;;;;;;;;;;11.90;88.10;;;;;;5065634;28;20007;-71
2021/05/26 12:32:48;;;;;;;;;;;11.60;89.80;;;;;;5075449;28;19912;-71
2021/05/26 12:35:15;;;;;;;;;;;11.60;90.60;;;;;;5076219;28;19916;-71
2021/05/26 12:37:42;;;;;;;;;;;11.60;91.10;;;;;;5075308;28;20296;-71
2021/05/26 12:40:08;;;;;;;;;;;11.60;90.30;;;;;;5069740;28;19913;-72
2021/05/26 12:42:35;;;;;;;;;;;11.50;91.20;;;;;;5071982;28;19920;-73
2021/05/26 12:45:16;;;;;;;;;;;11.60;92.60;;;;;;5075815;28;19912;-72
2021/05/26 12:47:41;;;;;;;;;;;11.70;91.70;;;;;;5075564;28;19908;-71
2021/05/26 12:50:11;;;;;;;;;;;11.30;91.90;;;;;;5073941;28;19923;-72
2021/05/26 12:52:38;;;;;;;;;;;11.50;93.50;;;;;;5062683;28;19913;-72
2021/05/26 12:55:05;;;;;;;;;;;11.60;91.70;;;;;;5064486;28;19921;-73
2021/05/26 12:57:31;;;;;;;;;;;11.40;92.60;;;;;;5084080;28;19996;-72
2021/05/26 12:59:59;;;;;;;;;;;11.30;93.10;;;;;;5073548;28;19998;-72
2021/05/26 13:02:29;;;;;;;;;;;11.10;92.20;;;;;;5086300;28;19912;-74
2021/05/26 13:04:55;;;;;;;;;;;10.90;93.10;;;;;;5076311;28;19916;-73
2021/05/26 13:07:27;;;;;;;;;;;11.20;94.20;;;;;;5081618;28;19916;-73
2021/05/26 13:09:52;;;;;;;;;;;11.30;93.40;;;;;;5083202;28;19955;-72
2021/05/26 13:12:30;;;;;;;;;;;11.50;92.90;;;;;;5095090;28;19967;-72
2021/05/26 13:15:14;;;;;;;;;;;11.50;91.80;;;;;;5075161;28;19955;-72
2021/05/26 13:17:40;;;;;;;;;;;11.40;91.20;;;;;;5067091;28;19913;-72
2021/05/26 13:20:25;;;;;;;;;;;11.40;92.90;;;;;;5091223;28;19919;-72
2021/05/26 13:22:53;;;;;;;;;;;11.40;92.00;;;;;;5077414;28;19917;-72
2021/05/26 13:25:20;;;;;;;;;;;11.20;91.80;;;;;;5079839;28;19916;-71
2021/05/26 13:27:47;;;;;;;;;;;11.10;92.00;;;;;;5089696;28;19912;-72
2021/05/26 13:30:12;;;;;;;;;;;11.00;92.50;;;;;;5095249;28;19935;-72
2021/05/26 13:32:38;;;;;;;;;;;11.00;92.60;;;;;;5087254;28;20261;-72
2021/05/26 13:35:04;;;;;;;;;;;11.00;93.70;;;;;;5075213;28;19919;-72
2021/05/26 13:37:29;;;;;;;;;;;11.00;93.00;;;;;;5087641;28;20011;-72
2021/05/26 13:39:55;;;;;;;;;;;10.90;93.50;;;;;;5091396;28;20204;-72
2021/05/26 13:42:21;;;;;;;;;;;10.80;93.40;;;;;;5090252;28;19952;-72
2021/05/26 13:44:46;;;;;;;;;;;10.80;94.10;;;;;;5079107;28;20327;-73
2021/05/26 13:47:12;;;;;;;;;;;10.80;94.40;;;;;;5089636;28;20242;-73
2021/05/26 13:49:37;;;;;;;;;;;10.80;94.60;;;;;;5087036;28;20263;-73
2021/05/26 13:52:03;;;;;;;;;;;10.90;94.90;;;;;;5085425;28;20418;-73
2021/05/26 13:54:28;;;;;;;;;;;10.90;94.40;;;;;;5093305;28;19934;-73
2021/05/26 13:56:54;;;;;;;;;;;11.00;94.40;;;;;;5088610;28;19916;-72
2021/05/26 13:59:19;;;;;;;;;;;11.10;94.40;;;;;;5094509;28;20274;-72
2021/05/26 14:01:45;;;;;;;;;;;11.10;94.80;;;;;;5096045;28;20316;-73
2021/05/26 14:04:11;;;;;;;;;;;11.10;93.40;;;;;;5083676;28;19912;-72
2021/05/26 14:06:38;;;;;;;;;;;11.20;94.40;;;;;;5074519;28;19948;-73
2021/05/26 14:09:04;;;;;;;;;;;11.30;93.90;;;;;;5084331;28;19920;-73
2021/05/26 14:11:29;;;;;;;;;;;11.30;94.40;;;;;;5075937;28;19909;-72
2021/05/26 14:13:55;;;;;;;;;;;11.00;93.40;;;;;;5090107;28;19913;-72
2021/05/26 14:16:20;;;;;;;;;;;10.80;94.00;;;;;;5092012;28;19916;-72
2021/05/26 14:18:46;;;;;;;;;;;10.80;94.50;;;;;;5079618;28;20003;-72
2021/05/26 14:21:11;;;;;;;;;;;10.80;94.80;;;;;;5074493;28;19958;-73
2021/05/26 14:23:39;;;;;;;;;;;10.90;94.80;;;;;;5078379;28;19981;-73
2021/05/26 14:26:05;;;;;;;;;;;11.10;94.30;;;;;;5061767;28;19999;-73
2021/05/26 14:28:30;;;;;;;;;;;11.20;94.40;;;;;;5063357;28;20070;-73